Tahitian Princess — ZCDD8 — position and weather

sailwx.info

Track history (hours):
 
Tides and Currents Weather Stations Pressure Air Temp Water Temp Dewpoint Dewpoint Depression Visibility Wind Speed Wind Dir Waves Ship Positions

Tahitian Princess

Operator: P & O Irish Sea Ltd

Last reported at 2019-Oct-17 16:30 UTC. Time now 2019-Oct-17 17:00 UTC.
Position N 53°21' W 006°13'.

Length 167 m; draft 5.8 m.

Type: Ship (hazmat cat A). MMSI: 310362000.

Date/timePositionNaut miles runAvg speedWind from/ knotsBaromVisibWave heightAir tempDewpointWater temp
2019-Oct-17 16:30N 53°21' W 006°13'3 5.6
2019-Oct-17 16:00N 53°21' W 006°08'917.4
2019-Oct-17 15:30N 53°23' W 005°54'6618.6
2019-Oct-17 11:58N 53°34' W 004°05'818.5
2019-Oct-17 11:30N 53°34' W 003°51'918.3
2019-Oct-17 11:00N 53°33' W 003°36'918.3
2019-Oct-17 10:31N 53°32' W 003°21'816.8
2019-Oct-17 10:00N 53°31' W 003°07'510.6
2019-Oct-17 09:30N 53°27' W 003°01'0 0.0
2019-Oct-17 09:00N 53°27' W 003°01'0 0.6
2019-Oct-17 08:30N 53°27' W 003°01'0 0.4
2019-Oct-17 08:00N 53°27' W 003°01'0 0.0
2019-Oct-17 07:30N 53°27' W 003°01'0 0.0
2019-Oct-17 07:00N 53°27' W 003°01'0 0.0
2019-Oct-17 06:30N 53°27' W 003°01'0 0.0
2019-Oct-17 06:00N 53°27' W 003°01'0 0.0
2019-Oct-17 05:30N 53°27' W 003°01'0 0.0
2019-Oct-17 05:00N 53°27' W 003°01'0 0.0
2019-Oct-17 04:30N 53°27' W 003°01'0 0.4
2019-Oct-17 04:00N 53°27' W 003°01'0 0.8
2019-Oct-17 03:30N 53°27' W 003°01'510.4
2019-Oct-17 03:00N 53°31' W 003°07'816.4
2019-Oct-17 02:30N 53°31' W 003°21'918.1
2019-Oct-17 02:00N 53°31' W 003°36'917.7
2019-Oct-17 01:30N 53°32' W 003°51'816.2
2019-Oct-17 01:00N 53°34' W 004°04'6318.2
2019-Oct-16 21:33N 53°25' W 005°49'820.1
2019-Oct-16 21:09N 53°21' W 006°01'319.1
2019-Oct-16 21:00N 53°20' W 006°05'5 9.7
2019-Oct-16 20:30N 53°21' W 006°13'0 0.0
2019-Oct-16 20:00N 53°21' W 006°13'0 0.0
2019-Oct-16 19:30N 53°21' W 006°13'0 0.0
2019-Oct-16 19:00N 53°21' W 006°13'0 0.0
2019-Oct-16 18:30N 53°21' W 006°13'0 0.0
2019-Oct-16 18:00N 53°21' W 006°13'0 0.0
2019-Oct-16 17:30N 53°21' W 006°13'0 0.0
2019-Oct-16 17:00N 53°21' W 006°13'0 0.0
2019-Oct-16 16:30N 53°21' W 006°13'2 3.3
2019-Oct-16 16:00N 53°21' W 006°10'815.1
2019-Oct-16 15:30N 53°22' W 005°58'6718.1
2019-Oct-16 11:48N 53°34' W 004°07'617.8
2019-Oct-16 11:28N 53°34' W 003°57'817.7
2019-Oct-16 11:00N 53°34' W 003°43'917.4
2019-Oct-16 10:30N 53°33' W 003°29'917.2
2019-Oct-16 10:00N 53°31' W 003°15'714.5
2019-Oct-16 09:30N 53°28' W 003°04'2 3.8
2019-Oct-16 09:00N 53°27' W 003°01'0 0.8
2019-Oct-16 08:30N 53°27' W 003°01'0 0.0
2019-Oct-16 08:00N 53°27' W 003°01'0 0.0
2019-Oct-16 07:30N 53°27' W 003°01'0 0.0
2019-Oct-16 07:00N 53°27' W 003°01'0 0.0
2019-Oct-16 06:30N 53°27' W 003°01'0 0.0
2019-Oct-16 06:00N 53°27' W 003°01'0 0.0
2019-Oct-16 05:30N 53°27' W 003°01'0 0.0
2019-Oct-16 05:00N 53°27' W 003°01'0 0.0
2019-Oct-16 04:30N 53°27' W 003°01'0 0.8
2019-Oct-16 04:00N 53°27' W 003°01'0 1.0
2019-Oct-16 03:30N 53°27' W 003°02'713.7
2019-Oct-16 03:00N 53°32' W 003°10'816.8
2019-Oct-16 02:30N 53°31' W 003°25'917.3
2019-Oct-16 02:00N 53°31' W 003°39'917.5
2019-Oct-16 01:30N 53°33' W 003°54'6618.3
2019-Oct-15 21:53N 53°24' W 005°44'1019.2
2019-Oct-15 21:21N 53°21' W 006°00'515.7
2019-Oct-15 21:00N 53°21' W 006°09'2 4.1
2019-Oct-15 20:28N 53°21' W 006°13'0 0.0
2019-Oct-15 19:55N 53°21' W 006°13'0 0.0
2019-Oct-15 19:22N 53°21' W 006°13'0 0.0
2019-Oct-15 18:46N 53°21' W 006°13'0 0.0
2019-Oct-15 18:10N 53°21' W 006°13'0 0.0
2019-Oct-15 17:58N 53°21' W 006°13'0 0.0
2019-Oct-15 17:28N 53°21' W 006°13'0 0.0
2019-Oct-15 16:58N 53°21' W 006°13'0 0.0
2019-Oct-15 16:26N 53°21' W 006°13'2 4.0
2019-Oct-15 16:00N 53°21' W 006°10'816.1
2019-Oct-15 15:30N 53°22' W 005°57'7017.4
2019-Oct-15 11:28N 53°34' W 004°00'816.8
2019-Oct-15 10:58N 53°34' W 003°46'818.4
2019-Oct-15 10:31N 53°33' W 003°32'918.3
2019-Oct-15 10:01N 53°32' W 003°17'815.7
2019-Oct-15 09:31N 53°29' W 003°05'3 5.5
2019-Oct-15 09:00N 53°27' W 003°01'0 0.8
2019-Oct-15 08:30N 53°27' W 003°01'0 0.0
2019-Oct-15 07:59N 53°27' W 003°01'0 0.0
2019-Oct-15 07:29N 53°27' W 003°01'0 0.0
2019-Oct-15 07:00N 53°27' W 003°01'0 0.0
2019-Oct-15 06:30N 53°27' W 003°01'0 0.0
2019-Oct-15 06:00N 53°27' W 003°01'0 0.0
2019-Oct-15 05:30N 53°27' W 003°01'0 0.0
2019-Oct-15 05:00N 53°27' W 003°01'0 0.0
2019-Oct-15 04:30N 53°27' W 003°01'0 0.8
2019-Oct-15 04:00N 53°27' W 003°01'0 0.3
2019-Oct-15 03:30N 53°27' W 003°01'510.2
2019-Oct-15 03:01N 53°31' W 003°07'815.6
2019-Oct-15 02:31N 53°31' W 003°20'917.1
2019-Oct-15 02:01N 53°31' W 003°34'816.4
2019-Oct-15 01:31N 53°32' W 003°48'816.7
2019-Oct-15 01:01N 53°34' W 004°02'7217.0
2019-Oct-14 20:47N 53°21' W 006°00'415.9
2019-Oct-14 20:31N 53°21' W 006°08'3 6.3
2019-Oct-14 20:00N 53°21' W 006°13'0 0.0
2019-Oct-14 19:30N 53°21' W 006°13'0 0.0
2019-Oct-14 19:00N 53°21' W 006°13'0 0.0
2019-Oct-14 18:30N 53°21' W 006°13'0 0.0
2019-Oct-14 18:00N 53°21' W 006°13'0 0.0
2019-Oct-14 17:30N 53°21' W 006°13'0 0.3
2019-Oct-14 17:00N 53°21' W 006°13'0 0.0
2019-Oct-14 16:30N 53°21' W 006°13'0 0.0
2019-Oct-14 16:00N 53°21' W 006°13'0 0.0
2019-Oct-14 15:30N 53°21' W 006°13'0 0.0
2019-Oct-14 15:00N 53°21' W 006°13'0 0.0
2019-Oct-14 14:30N 53°21' W 006°13'0 0.0
2019-Oct-14 14:00N 53°21' W 006°13'0 0.0
2019-Oct-14 13:30N 53°21' W 006°13'0 0.0
2019-Oct-14 13:00N 53°21' W 006°13'0 0.0
2019-Oct-14 12:30N 53°21' W 006°13'0 0.0
2019-Oct-14 12:00N 53°21' W 006°13'0 0.0
2019-Oct-14 11:30N 53°21' W 006°13'0 0.0
2019-Oct-14 11:00N 53°21' W 006°13'0 0.0
2019-Oct-14 10:30N 53°21' W 006°13'0 0.0
2019-Oct-14 10:00N 53°21' W 006°13'0 0.0
2019-Oct-14 09:30N 53°21' W 006°13'0 0.0
2019-Oct-14 09:00N 53°21' W 006°13'0 0.0
2019-Oct-14 08:30N 53°21' W 006°13'0 0.2
2019-Oct-14 08:00N 53°21' W 006°13'0 0.1
2019-Oct-14 07:30N 53°21' W 006°13'0 0.0
2019-Oct-14 07:00N 53°21' W 006°13'0 0.0
2019-Oct-14 06:30N 53°21' W 006°13'0 0.0
2019-Oct-14 06:00N 53°21' W 006°13'0 0.0
2019-Oct-14 05:30N 53°21' W 006°13'0 0.0
2019-Oct-14 05:00N 53°21' W 006°13'0 0.0
2019-Oct-14 04:30N 53°21' W 006°13'2 3.8
2019-Oct-14 04:00N 53°21' W 006°10'816.3
2019-Oct-14 03:30N 53°22' W 005°57'6619.8
2019-Oct-14 00:12N 53°34' W 004°08'419.9
2019-Oct-14 00:00N 53°34' W 004°01'1019.5
2019-Oct-13 23:30N 53°34' W 003°45'919.0
2019-Oct-13 23:00N 53°33' W 003°29'918.7
2019-Oct-13 22:31N 53°31' W 003°14'612.5
2019-Oct-13 22:00N 53°29' W 003°04'2 5.0
2019-Oct-13 21:30N 53°27' W 003°01'0 0.9
2019-Oct-13 21:00N 53°27' W 003°01'0 0.0
2019-Oct-13 20:28N 53°27' W 003°01'0 0.0
2019-Oct-13 19:58N 53°27' W 003°01'0 0.0
2019-Oct-13 19:31N 53°27' W 003°01'0 0.0
2019-Oct-13 18:58N 53°27' W 003°01'0 0.0
2019-Oct-13 18:28N 53°27' W 003°01'0 0.0
2019-Oct-13 17:58N 53°27' W 003°01'0 0.0
2019-Oct-13 17:28N 53°27' W 003°01'0 0.0
2019-Oct-13 16:58N 53°27' W 003°01'0 0.5
2019-Oct-13 16:30N 53°27' W 003°01'0 0.4
2019-Oct-13 16:01N 53°27' W 003°01'3 6.2
2019-Oct-13 15:31N 53°29' W 003°05'713.1
2019-Oct-13 15:01N 53°31' W 003°15'917.9
2019-Oct-13 14:30N 53°31' W 003°31'917.8
2019-Oct-13 14:01N 53°31' W 003°45'917.8
2019-Oct-13 13:30N 53°33' W 004°00'6516.9
2019-Oct-13 09:39N 53°24' W 005°49'419.8
2019-Oct-13 09:28N 53°22' W 005°55'817.7
2019-Oct-13 09:00N 53°21' W 006°08'3 5.1
2019-Oct-13 08:25N 53°21' W 006°13'0 0.0
2019-Oct-13 07:52N 53°21' W 006°13'0 0.0
2019-Oct-13 07:19N 53°21' W 006°13'0 0.0
2019-Oct-13 06:43N 53°21' W 006°13'0 0.0
2019-Oct-13 06:28N 53°21' W 006°13'0 0.0
2019-Oct-13 05:58N 53°21' W 006°13'0 0.0
2019-Oct-13 05:28N 53°21' W 006°13'0 0.0
2019-Oct-13 04:58N 53°21' W 006°13'1 2.3
2019-Oct-13 04:30N 53°21' W 006°11'915.2
2019-Oct-13 03:56N 53°22' W 005°57'819.4
2019-Oct-13 03:30N 53°25' W 005°44'6020.7
2019-Oct-13 00:35N 53°34' W 004°03'720.6
2019-Oct-13 00:15N 53°34' W 003°52'520.3
2019-Oct-13 00:00N 53°34' W 003°43'1020.0
2019-Oct-12 23:30N 53°33' W 003°27'1019.1
2019-Oct-12 23:00N 53°32' W 003°11'714.9
2019-Oct-12 22:30N 53°27' W 003°01'0 0.9
2019-Oct-12 22:00N 53°27' W 003°01'0 0.7
2019-Oct-12 21:30N 53°27' W 003°01'0 0.0
2019-Oct-12 21:00N 53°27' W 003°01'0 0.0
2019-Oct-12 20:30N 53°27' W 003°01'0 0.0
2019-Oct-12 20:00N 53°27' W 003°01'0 0.0
2019-Oct-12 19:30N 53°27' W 003°01'0 0.0
2019-Oct-12 19:00N 53°27' W 003°01'0 0.0
2019-Oct-12 18:30N 53°27' W 003°01'0 0.0
2019-Oct-12 18:00N 53°27' W 003°01'0 0.0
2019-Oct-12 17:30N 53°27' W 003°01'0 0.0
2019-Oct-12 17:00N 53°27' W 003°01'0 0.0
2019-Oct-12 16:30N 53°27' W 003°01'0 0.0
2019-Oct-12 16:00N 53°27' W 003°01'0 0.8
2019-Oct-12 15:30N 53°27' W 003°01'0 0.3
2019-Oct-12 15:00N 53°27' W 003°01'611.2
2019-Oct-12 14:30N 53°31' W 003°07'816.3
2019-Oct-12 14:00N 53°31' W 003°21'815.9
2019-Oct-12 13:30N 53°31' W 003°34'815.6
2019-Oct-12 13:00N 53°32' W 003°47'917.2
2019-Oct-12 12:30N 53°33' W 004°01'7218.5
2019-Oct-12 08:37N 53°21' W 006°00'219.9
2019-Oct-12 08:30N 53°20' W 006°04'611.1
2019-Oct-12 08:01N 53°21' W 006°13'0 0.2
2019-Oct-12 07:31N 53°21' W 006°13'0 0.0
2019-Oct-12 07:00N 53°21' W 006°13'0 0.0
2019-Oct-12 06:30N 53°21' W 006°13'0 0.0
2019-Oct-12 06:00N 53°21' W 006°13'0 0.0
2019-Oct-12 05:30N 53°21' W 006°13'0 0.0
2019-Oct-12 05:00N 53°21' W 006°13'0 0.0
2019-Oct-12 04:30N 53°21' W 006°13'0 0.2
2019-Oct-12 04:01N 53°21' W 006°13'4 8.5
2019-Oct-12 03:30N 53°20' W 006°06'917.9
2019-Oct-12 03:00N 53°23' W 005°52'6418.2
2019-Oct-11 23:31N 53°34' W 004°06'119.4
2019-Oct-11 23:29N 53°34' W 004°05'919.2
2019-Oct-11 23:00N 53°34' W 003°50'918.7
2019-Oct-11 22:30N 53°33' W 003°34'918.3
2019-Oct-11 22:00N 53°32' W 003°19'816.3
2019-Oct-11 21:30N 53°30' W 003°06'4 8.4
2019-Oct-11 21:00N 53°27' W 003°01'0 0.9
2019-Oct-11 20:30N 53°27' W 003°01'0 0.0
2019-Oct-11 20:00N 53°27' W 003°01'0 0.0
2019-Oct-11 19:30N 53°27' W 003°01'0 0.0
2019-Oct-11 19:00N 53°27' W 003°01'0 0.0
2019-Oct-11 18:30N 53°27' W 003°01'0 0.0
2019-Oct-11 18:00N 53°27' W 003°01'0 0.0
2019-Oct-11 17:30N 53°27' W 003°01'0 0.0
2019-Oct-11 17:00N 53°27' W 003°01'0 0.0
2019-Oct-11 16:30N 53°27' W 003°01'0 0.1
2019-Oct-11 16:00N 53°27' W 003°01'0 0.8
2019-Oct-11 15:30N 53°27' W 003°01'2 3.8
2019-Oct-11 15:01N 53°28' W 003°04'713.5
2019-Oct-11 14:31N 53°31' W 003°14'917.9
2019-Oct-11 14:01N 53°31' W 003°29'918.0
2019-Oct-11 13:31N 53°32' W 003°44'917.9
2019-Oct-11 13:00N 53°33' W 003°59'7318.0
2019-Oct-11 08:56N 53°21' W 006°00'614.6
2019-Oct-11 08:30N 53°21' W 006°11'1 2.5
2019-Oct-11 08:00N 53°21' W 006°13'0 0.0
2019-Oct-11 07:30N 53°21' W 006°13'0 0.0
2019-Oct-11 07:00N 53°21' W 006°13'0 0.0
2019-Oct-11 06:31N 53°21' W 006°13'0 0.0
2019-Oct-11 06:00N 53°21' W 006°13'0 0.0
2019-Oct-11 05:30N 53°21' W 006°13'0 0.0
2019-Oct-11 05:00N 53°21' W 006°13'0 0.0
2019-Oct-11 04:30N 53°21' W 006°13'4 7.8
2019-Oct-11 04:00N 53°20' W 006°07'816.8
2019-Oct-11 03:30N 53°23' W 005°53'7018.3
2019-Oct-10 23:40N 53°33' W 003°56'318.5
2019-Oct-10 23:30N 53°33' W 003°51'918.3
2019-Oct-10 23:00N 53°33' W 003°36'918.4
2019-Oct-10 22:30N 53°32' W 003°21'917.4
2019-Oct-10 22:00N 53°31' W 003°06'5 9.7
2019-Oct-10 21:30N 53°27' W 003°01'0 0.9
2019-Oct-10 21:00N 53°27' W 003°01'0 0.0
2019-Oct-10 20:30N 53°27' W 003°01'0 0.0
2019-Oct-10 20:00N 53°27' W 003°01'0 0.0
2019-Oct-10 19:30N 53°27' W 003°01'0 0.0
2019-Oct-10 19:00N 53°27' W 003°01'0 0.0
2019-Oct-10 18:30N 53°27' W 003°01'0 0.0
2019-Oct-10 18:00N 53°27' W 003°01'0 0.0
2019-Oct-10 17:30N 53°27' W 003°01'0 0.0
2019-Oct-10 17:00N 53°27' W 003°01'0 0.9
2019-Oct-10 16:30N 53°27' W 003°01'0 0.1
2019-Oct-10 16:00N 53°27' W 003°01'611.4
2019-Oct-10 15:31N 53°31' W 003°07'917.3
2019-Oct-10 15:01N 53°31' W 003°22'918.8
2019-Oct-10 14:31N 53°31' W 003°37'918.4
2019-Oct-10 14:01N 53°33' W 003°53'7717.8
2019-Oct-10 09:41N 53°21' W 006°01'317.2
2019-Oct-10 09:31N 53°20' W 006°06'4 8.7
2019-Oct-10 09:01N 53°21' W 006°13'0 0.0
2019-Oct-10 08:30N 53°21' W 006°13'0 0.0
2019-Oct-10 08:00N 53°21' W 006°13'0 0.0
2019-Oct-10 07:30N 53°21' W 006°13'0 0.0
2019-Oct-10 07:00N 53°21' W 006°13'0 0.0
2019-Oct-10 06:30N 53°21' W 006°13'0 0.0
2019-Oct-10 06:00N 53°21' W 006°13'0 0.0
2019-Oct-10 05:31N 53°21' W 006°13'0 0.0
2019-Oct-10 05:01N 53°21' W 006°13'3 6.6
2019-Oct-10 04:31N 53°21' W 006°08'1217.0
2019-Oct-10 03:48N 53°24' W 005°48'6118.4
2019-Oct-10 00:31N 53°35' W 004°08'219.0
2019-Oct-10 00:24N 53°34' W 004°04'719.0
2019-Oct-10 00:00N 53°34' W 003°52'918.8
2019-Oct-09 23:31N 53°34' W 003°36'918.4
2019-Oct-09 23:01N 53°32' W 003°21'917.5
2019-Oct-09 22:31N 53°31' W 003°06'5 9.8
2019-Oct-09 22:00N 53°27' W 003°01'0 0.9
2019-Oct-09 21:30N 53°27' W 003°01'0 0.0
2019-Oct-09 20:58N 53°27' W 003°01'0 0.0
2019-Oct-09 20:28N 53°27' W 003°01'0 0.0
2019-Oct-09 19:58N 53°27' W 003°01'0 0.0
2019-Oct-09 19:28N 53°27' W 003°01'0 0.0
2019-Oct-09 18:58N 53°27' W 003°01'0 0.0
2019-Oct-09 18:28N 53°27' W 003°01'0 0.0
2019-Oct-09 17:58N 53°27' W 003°01'0 0.0
2019-Oct-09 17:28N 53°27' W 003°01'0 0.0
2019-Oct-09 16:58N 53°27' W 003°01'0 0.0
2019-Oct-09 16:28N 53°27' W 003°01'0 0.0
2019-Oct-09 15:58N 53°27' W 003°01'0 1.0
2019-Oct-09 15:30N 53°27' W 003°01'1 2.0
2019-Oct-09 15:01N 53°28' W 003°02'714.5
2019-Oct-09 14:31N 53°31' W 003°13'918.4
2019-Oct-09 14:01N 53°31' W 003°28'918.6
2019-Oct-09 13:31N 53°31' W 003°44'918.5
2019-Oct-09 13:00N 53°33' W 003°59'7318.2
2019-Oct-09 09:00N 53°21' W 005°60'714.0
2019-Oct-09 08:30N 53°21' W 006°11'1 2.0
2019-Oct-09 08:00N 53°21' W 006°13'0 0.0
2019-Oct-09 07:30N 53°21' W 006°13'0 0.0
2019-Oct-09 07:00N 53°21' W 006°13'0 0.0
2019-Oct-09 06:30N 53°21' W 006°13'0 0.0
2019-Oct-09 06:00N 53°21' W 006°13'0 0.0
2019-Oct-09 05:30N 53°21' W 006°13'0 0.0
2019-Oct-09 05:00N 53°21' W 006°13'0 0.0
2019-Oct-09 04:30N 53°21' W 006°13'0 0.1
2019-Oct-09 04:00N 53°21' W 006°13'4 7.7
2019-Oct-09 03:30N 53°20' W 006°07'816.1
2019-Oct-09 03:00N 53°23' W 005°54'6116.8
2019-Oct-08 23:22N 53°34' W 004°13'1019.0
2019-Oct-08 22:50N 53°34' W 003°56'618.8
2019-Oct-08 22:30N 53°34' W 003°45'918.4
2019-Oct-08 22:00N 53°33' W 003°30'918.2
2019-Oct-08 21:30N 53°31' W 003°15'816.0
2019-Oct-08 21:01N 53°28' W 003°03'1 2.8
2019-Oct-08 20:30N 53°27' W 003°01'0 0.9
2019-Oct-08 20:00N 53°27' W 003°01'0 0.0
2019-Oct-08 19:30N 53°27' W 003°01'0 0.0
2019-Oct-08 19:00N 53°27' W 003°01'0 0.0
2019-Oct-08 18:30N 53°27' W 003°01'0 0.0
2019-Oct-08 18:00N 53°27' W 003°01'0 0.0
2019-Oct-08 17:30N 53°27' W 003°01'0 0.0
2019-Oct-08 17:00N 53°27' W 003°01'0 0.0
2019-Oct-08 16:30N 53°27' W 003°01'0 0.0
2019-Oct-08 16:00N 53°27' W 003°01'0 0.9
2019-Oct-08 15:28N 53°27' W 003°01'0 0.3
2019-Oct-08 15:01N 53°27' W 003°01'713.7
2019-Oct-08 14:31N 53°32' W 003°09'918.3
2019-Oct-08 14:01N 53°31' W 003°24'918.9
2019-Oct-08 13:31N 53°31' W 003°40'918.7
2019-Oct-08 13:01N 53°33' W 003°56'7518.0
2019-Oct-08 08:50N 53°21' W 006°01'413.3
2019-Oct-08 08:30N 53°21' W 006°08'3 6.4
2019-Oct-08 08:00N 53°21' W 006°13'0 0.0
2019-Oct-08 07:30N 53°21' W 006°13'0 0.0
2019-Oct-08 07:00N 53°21' W 006°13'0 0.0
2019-Oct-08 06:30N 53°21' W 006°13'0 0.0
2019-Oct-08 06:01N 53°21' W 006°13'0 0.0
2019-Oct-08 05:30N 53°21' W 006°13'0 0.0
2019-Oct-08 05:00N 53°21' W 006°13'0 0.0
2019-Oct-08 04:30N 53°21' W 006°13'0 0.1
2019-Oct-08 04:00N 53°21' W 006°13'4 8.4
2019-Oct-08 03:30N 53°20' W 006°06'816.4
2019-Oct-08 03:00N 53°23' W 005°53'6615.9
2019-Oct-07 22:51N 53°34' W 004°03'618.9
2019-Oct-07 22:31N 53°34' W 003°53'918.8
2019-Oct-07 22:01N 53°33' W 003°37'918.8
2019-Oct-07 21:31N 53°33' W 003°21'917.6
2019-Oct-07 21:01N 53°31' W 003°07'510.2
2019-Oct-07 20:31N 53°27' W 003°01'0 0.9
2019-Oct-07 20:00N 53°27' W 003°01'0 0.0
2019-Oct-07 19:31N 53°27' W 003°01'0 0.0
2019-Oct-07 19:00N 53°27' W 003°01'0 0.0
2019-Oct-07 18:30N 53°27' W 003°01'0 0.0
2019-Oct-07 18:00N 53°27' W 003°01'0 0.0
2019-Oct-07 17:30N 53°27' W 003°01'0 0.0
2019-Oct-07 17:00N 53°27' W 003°01'0 0.0
2019-Oct-07 16:30N 53°27' W 003°01'  
Track history (hours):
 
Tides and Currents Weather Stations Pressure Air Temp Water Temp Dewpoint Dewpoint Depression Visibility Wind Speed Wind Dir Waves Ship Positions

Tahitian Princess

Operator: P & O Irish Sea Ltd

Last reported at 2019-Oct-17 16:30 UTC. Time now 2019-Oct-17 17:00 UTC.
Position N 53°21' W 006°13'.

Length 167 m; draft 5.8 m.

Type: Ship (hazmat cat A). MMSI: 310362000.

Date/timePositionNaut miles runAvg speedWind from/ knotsBaromVisibWave heightAir tempDewpointWater temp
2019-Oct-17 16:30N 53°21' W 006°13'3 5.6
2019-Oct-17 16:00N 53°21' W 006°08'917.4
2019-Oct-17 15:30N 53°23' W 005°54'6618.6
2019-Oct-17 11:58N 53°34' W 004°05'818.5
2019-Oct-17 11:30N 53°34' W 003°51'918.3
2019-Oct-17 11:00N 53°33' W 003°36'918.3
2019-Oct-17 10:31N 53°32' W 003°21'816.8
2019-Oct-17 10:00N 53°31' W 003°07'510.6
2019-Oct-17 09:30N 53°27' W 003°01'0 0.0
2019-Oct-17 09:00N 53°27' W 003°01'0 0.6
2019-Oct-17 08:30N 53°27' W 003°01'0 0.4
2019-Oct-17 08:00N 53°27' W 003°01'0 0.0
2019-Oct-17 07:30N 53°27' W 003°01'0 0.0
2019-Oct-17 07:00N 53°27' W 003°01'0 0.0
2019-Oct-17 06:30N 53°27' W 003°01'0 0.0
2019-Oct-17 06:00N 53°27' W 003°01'0 0.0
2019-Oct-17 05:30N 53°27' W 003°01'0 0.0
2019-Oct-17 05:00N 53°27' W 003°01'0 0.0
2019-Oct-17 04:30N 53°27' W 003°01'0 0.4
2019-Oct-17 04:00N 53°27' W 003°01'0 0.8
2019-Oct-17 03:30N 53°27' W 003°01'510.4
2019-Oct-17 03:00N 53°31' W 003°07'816.4
2019-Oct-17 02:30N 53°31' W 003°21'918.1
2019-Oct-17 02:00N 53°31' W 003°36'917.7
2019-Oct-17 01:30N 53°32' W 003°51'816.2
2019-Oct-17 01:00N 53°34' W 004°04'6318.2
2019-Oct-16 21:33N 53°25' W 005°49'820.1
2019-Oct-16 21:09N 53°21' W 006°01'319.1
2019-Oct-16 21:00N 53°20' W 006°05'5 9.7
2019-Oct-16 20:30N 53°21' W 006°13'0 0.0
2019-Oct-16 20:00N 53°21' W 006°13'0 0.0
2019-Oct-16 19:30N 53°21' W 006°13'0 0.0
2019-Oct-16 19:00N 53°21' W 006°13'0 0.0
2019-Oct-16 18:30N 53°21' W 006°13'0 0.0
2019-Oct-16 18:00N 53°21' W 006°13'0 0.0
2019-Oct-16 17:30N 53°21' W 006°13'0 0.0
2019-Oct-16 17:00N 53°21' W 006°13'0 0.0
2019-Oct-16 16:30N 53°21' W 006°13'2 3.3
2019-Oct-16 16:00N 53°21' W 006°10'815.1
2019-Oct-16 15:30N 53°22' W 005°58'6718.1
2019-Oct-16 11:48N 53°34' W 004°07'617.8
2019-Oct-16 11:28N 53°34' W 003°57'817.7
2019-Oct-16 11:00N 53°34' W 003°43'917.4
2019-Oct-16 10:30N 53°33' W 003°29'917.2
2019-Oct-16 10:00N 53°31' W 003°15'714.5
2019-Oct-16 09:30N 53°28' W 003°04'2 3.8
2019-Oct-16 09:00N 53°27' W 003°01'0 0.8
2019-Oct-16 08:30N 53°27' W 003°01'0 0.0
2019-Oct-16 08:00N 53°27' W 003°01'0 0.0
2019-Oct-16 07:30N 53°27' W 003°01'0 0.0
2019-Oct-16 07:00N 53°27' W 003°01'0 0.0
2019-Oct-16 06:30N 53°27' W 003°01'0 0.0
2019-Oct-16 06:00N 53°27' W 003°01'0 0.0
2019-Oct-16 05:30N 53°27' W 003°01'0 0.0
2019-Oct-16 05:00N 53°27' W 003°01'0 0.0
2019-Oct-16 04:30N 53°27' W 003°01'0 0.8
2019-Oct-16 04:00N 53°27' W 003°01'0 1.0
2019-Oct-16 03:30N 53°27' W 003°02'713.7
2019-Oct-16 03:00N 53°32' W 003°10'816.8
2019-Oct-16 02:30N 53°31' W 003°25'917.3
2019-Oct-16 02:00N 53°31' W 003°39'917.5
2019-Oct-16 01:30N 53°33' W 003°54'6618.3
2019-Oct-15 21:53N 53°24' W 005°44'1019.2
2019-Oct-15 21:21N 53°21' W 006°00'515.7
2019-Oct-15 21:00N 53°21' W 006°09'2 4.1
2019-Oct-15 20:28N 53°21' W 006°13'0 0.0
2019-Oct-15 19:55N 53°21' W 006°13'0 0.0
2019-Oct-15 19:22N 53°21' W 006°13'0 0.0
2019-Oct-15 18:46N 53°21' W 006°13'0 0.0
2019-Oct-15 18:10N 53°21' W 006°13'0 0.0
2019-Oct-15 17:58N 53°21' W 006°13'0 0.0
2019-Oct-15 17:28N 53°21' W 006°13'0 0.0
2019-Oct-15 16:58N 53°21' W 006°13'0 0.0
2019-Oct-15 16:26N 53°21' W 006°13'2 4.0
2019-Oct-15 16:00N 53°21' W 006°10'816.1
2019-Oct-15 15:30N 53°22' W 005°57'7017.4
2019-Oct-15 11:28N 53°34' W 004°00'816.8
2019-Oct-15 10:58N 53°34' W 003°46'818.4
2019-Oct-15 10:31N 53°33' W 003°32'918.3
2019-Oct-15 10:01N 53°32' W 003°17'815.7
2019-Oct-15 09:31N 53°29' W 003°05'3 5.5
2019-Oct-15 09:00N 53°27' W 003°01'0 0.8
2019-Oct-15 08:30N 53°27' W 003°01'0 0.0
2019-Oct-15 07:59N 53°27' W 003°01'0 0.0
2019-Oct-15 07:29N 53°27' W 003°01'0 0.0
2019-Oct-15 07:00N 53°27' W 003°01'0 0.0
2019-Oct-15 06:30N 53°27' W 003°01'0 0.0
2019-Oct-15 06:00N 53°27' W 003°01'0 0.0
2019-Oct-15 05:30N 53°27' W 003°01'0 0.0
2019-Oct-15 05:00N 53°27' W 003°01'0 0.0
2019-Oct-15 04:30N 53°27' W 003°01'0 0.8
2019-Oct-15 04:00N 53°27' W 003°01'0 0.3
2019-Oct-15 03:30N 53°27' W 003°01'510.2
2019-Oct-15 03:01N 53°31' W 003°07'815.6
2019-Oct-15 02:31N 53°31' W 003°20'917.1
2019-Oct-15 02:01N 53°31' W 003°34'816.4
2019-Oct-15 01:31N 53°32' W 003°48'816.7
2019-Oct-15 01:01N 53°34' W 004°02'7217.0
2019-Oct-14 20:47N 53°21' W 006°00'415.9
2019-Oct-14 20:31N 53°21' W 006°08'3 6.3
2019-Oct-14 20:00N 53°21' W 006°13'0 0.0
2019-Oct-14 19:30N 53°21' W 006°13'0 0.0
2019-Oct-14 19:00N 53°21' W 006°13'0 0.0
2019-Oct-14 18:30N 53°21' W 006°13'0 0.0
2019-Oct-14 18:00N 53°21' W 006°13'0 0.0
2019-Oct-14 17:30N 53°21' W 006°13'0 0.3
2019-Oct-14 17:00N 53°21' W 006°13'0 0.0
2019-Oct-14 16:30N 53°21' W 006°13'0 0.0
2019-Oct-14 16:00N 53°21' W 006°13'0 0.0
2019-Oct-14 15:30N 53°21' W 006°13'0 0.0
2019-Oct-14 15:00N 53°21' W 006°13'0 0.0
2019-Oct-14 14:30N 53°21' W 006°13'0 0.0
2019-Oct-14 14:00N 53°21' W 006°13'0 0.0
2019-Oct-14 13:30N 53°21' W 006°13'0 0.0
2019-Oct-14 13:00N 53°21' W 006°13'0 0.0
2019-Oct-14 12:30N 53°21' W 006°13'0 0.0
2019-Oct-14 12:00N 53°21' W 006°13'0 0.0
2019-Oct-14 11:30N 53°21' W 006°13'0 0.0
2019-Oct-14 11:00N 53°21' W 006°13'0 0.0
2019-Oct-14 10:30N 53°21' W 006°13'0 0.0
2019-Oct-14 10:00N 53°21' W 006°13'0 0.0
2019-Oct-14 09:30N 53°21' W 006°13'0 0.0
2019-Oct-14 09:00N 53°21' W 006°13'0 0.0
2019-Oct-14 08:30N 53°21' W 006°13'0 0.2
2019-Oct-14 08:00N 53°21' W 006°13'0 0.1
2019-Oct-14 07:30N 53°21' W 006°13'0 0.0
2019-Oct-14 07:00N 53°21' W 006°13'0 0.0
2019-Oct-14 06:30N 53°21' W 006°13'0 0.0
2019-Oct-14 06:00N 53°21' W 006°13'0 0.0
2019-Oct-14 05:30N 53°21' W 006°13'0 0.0
2019-Oct-14 05:00N 53°21' W 006°13'0 0.0
2019-Oct-14 04:30N 53°21' W 006°13'2 3.8
2019-Oct-14 04:00N 53°21' W 006°10'816.3
2019-Oct-14 03:30N 53°22' W 005°57'6619.8
2019-Oct-14 00:12N 53°34' W 004°08'419.9
2019-Oct-14 00:00N 53°34' W 004°01'1019.5
2019-Oct-13 23:30N 53°34' W 003°45'919.0
2019-Oct-13 23:00N 53°33' W 003°29'918.7
2019-Oct-13 22:31N 53°31' W 003°14'612.5
2019-Oct-13 22:00N 53°29' W 003°04'2 5.0
2019-Oct-13 21:30N 53°27' W 003°01'0 0.9
2019-Oct-13 21:00N 53°27' W 003°01'0 0.0
2019-Oct-13 20:28N 53°27' W 003°01'0 0.0
2019-Oct-13 19:58N 53°27' W 003°01'0 0.0
2019-Oct-13 19:31N 53°27' W 003°01'0 0.0
2019-Oct-13 18:58N 53°27' W 003°01'0 0.0
2019-Oct-13 18:28N 53°27' W 003°01'0 0.0
2019-Oct-13 17:58N 53°27' W 003°01'0 0.0
2019-Oct-13 17:28N 53°27' W 003°01'0 0.0
2019-Oct-13 16:58N 53°27' W 003°01'0 0.5
2019-Oct-13 16:30N 53°27' W 003°01'0 0.4
2019-Oct-13 16:01N 53°27' W 003°01'3 6.2
2019-Oct-13 15:31N 53°29' W 003°05'713.1
2019-Oct-13 15:01N 53°31' W 003°15'917.9
2019-Oct-13 14:30N 53°31' W 003°31'917.8
2019-Oct-13 14:01N 53°31' W 003°45'917.8
2019-Oct-13 13:30N 53°33' W 004°00'6516.9
2019-Oct-13 09:39N 53°24' W 005°49'419.8
2019-Oct-13 09:28N 53°22' W 005°55'817.7
2019-Oct-13 09:00N 53°21' W 006°08'3 5.1
2019-Oct-13 08:25N 53°21' W 006°13'0 0.0
2019-Oct-13 07:52N 53°21' W 006°13'0 0.0
2019-Oct-13 07:19N 53°21' W 006°13'0 0.0
2019-Oct-13 06:43N 53°21' W 006°13'0 0.0
2019-Oct-13 06:28N 53°21' W 006°13'0 0.0
2019-Oct-13 05:58N 53°21' W 006°13'0 0.0
2019-Oct-13 05:28N 53°21' W 006°13'0 0.0
2019-Oct-13 04:58N 53°21' W 006°13'1 2.3
2019-Oct-13 04:30N 53°21' W 006°11'915.2
2019-Oct-13 03:56N 53°22' W 005°57'819.4
2019-Oct-13 03:30N 53°25' W 005°44'6020.7
2019-Oct-13 00:35N 53°34' W 004°03'720.6
2019-Oct-13 00:15N 53°34' W 003°52'520.3
2019-Oct-13 00:00N 53°34' W 003°43'1020.0
2019-Oct-12 23:30N 53°33' W 003°27'1019.1
2019-Oct-12 23:00N 53°32' W 003°11'714.9
2019-Oct-12 22:30N 53°27' W 003°01'0 0.9
2019-Oct-12 22:00N 53°27' W 003°01'0 0.7
2019-Oct-12 21:30N 53°27' W 003°01'0 0.0
2019-Oct-12 21:00N 53°27' W 003°01'0 0.0
2019-Oct-12 20:30N 53°27' W 003°01'0 0.0
2019-Oct-12 20:00N 53°27' W 003°01'0 0.0
2019-Oct-12 19:30N 53°27' W 003°01'0 0.0
2019-Oct-12 19:00N 53°27' W 003°01'0 0.0
2019-Oct-12 18:30N 53°27' W 003°01'0 0.0
2019-Oct-12 18:00N 53°27' W 003°01'0 0.0
2019-Oct-12 17:30N 53°27' W 003°01'0 0.0
2019-Oct-12 17:00N 53°27' W 003°01'0 0.0
2019-Oct-12 16:30N 53°27' W 003°01'0 0.0
2019-Oct-12 16:00N 53°27' W 003°01'0 0.8
2019-Oct-12 15:30N 53°27' W 003°01'0 0.3
2019-Oct-12 15:00N 53°27' W 003°01'611.2
2019-Oct-12 14:30N 53°31' W 003°07'816.3
2019-Oct-12 14:00N 53°31' W 003°21'815.9
2019-Oct-12 13:30N 53°31' W 003°34'815.6
2019-Oct-12 13:00N 53°32' W 003°47'917.2
2019-Oct-12 12:30N 53°33' W 004°01'7218.5
2019-Oct-12 08:37N 53°21' W 006°00'219.9
2019-Oct-12 08:30N 53°20' W 006°04'611.1
2019-Oct-12 08:01N 53°21' W 006°13'0 0.2
2019-Oct-12 07:31N 53°21' W 006°13'0 0.0
2019-Oct-12 07:00N 53°21' W 006°13'0 0.0
2019-Oct-12 06:30N 53°21' W 006°13'0 0.0
2019-Oct-12 06:00N 53°21' W 006°13'0 0.0
2019-Oct-12 05:30N 53°21' W 006°13'0 0.0
2019-Oct-12 05:00N 53°21' W 006°13'0 0.0
2019-Oct-12 04:30N 53°21' W 006°13'0 0.2
2019-Oct-12 04:01N 53°21' W 006°13'4 8.5
2019-Oct-12 03:30N 53°20' W 006°06'917.9
2019-Oct-12 03:00N 53°23' W 005°52'6418.2
2019-Oct-11 23:31N 53°34' W 004°06'119.4
2019-Oct-11 23:29N 53°34' W 004°05'919.2
2019-Oct-11 23:00N 53°34' W 003°50'918.7
2019-Oct-11 22:30N 53°33' W 003°34'918.3
2019-Oct-11 22:00N 53°32' W 003°19'816.3
2019-Oct-11 21:30N 53°30' W 003°06'4 8.4
2019-Oct-11 21:00N 53°27' W 003°01'0 0.9
2019-Oct-11 20:30N 53°27' W 003°01'0 0.0
2019-Oct-11 20:00N 53°27' W 003°01'0 0.0
2019-Oct-11 19:30N 53°27' W 003°01'0 0.0
2019-Oct-11 19:00N 53°27' W 003°01'0 0.0
2019-Oct-11 18:30N 53°27' W 003°01'0 0.0
2019-Oct-11 18:00N 53°27' W 003°01'0 0.0
2019-Oct-11 17:30N 53°27' W 003°01'0 0.0
2019-Oct-11 17:00N 53°27' W 003°01'0 0.0
2019-Oct-11 16:30N 53°27' W 003°01'0 0.1
2019-Oct-11 16:00N 53°27' W 003°01'0 0.8
2019-Oct-11 15:30N 53°27' W 003°01'2 3.8
2019-Oct-11 15:01N 53°28' W 003°04'713.5
2019-Oct-11 14:31N 53°31' W 003°14'917.9
2019-Oct-11 14:01N 53°31' W 003°29'918.0
2019-Oct-11 13:31N 53°32' W 003°44'917.9
2019-Oct-11 13:00N 53°33' W 003°59'7318.0
2019-Oct-11 08:56N 53°21' W 006°00'614.6
2019-Oct-11 08:30N 53°21' W 006°11'1 2.5
2019-Oct-11 08:00N 53°21' W 006°13'0 0.0
2019-Oct-11 07:30N 53°21' W 006°13'0 0.0
2019-Oct-11 07:00N 53°21' W 006°13'0 0.0
2019-Oct-11 06:31N 53°21' W 006°13'0 0.0
2019-Oct-11 06:00N 53°21' W 006°13'0 0.0
2019-Oct-11 05:30N 53°21' W 006°13'0 0.0
2019-Oct-11 05:00N 53°21' W 006°13'0 0.0
2019-Oct-11 04:30N 53°21' W 006°13'4 7.8
2019-Oct-11 04:00N 53°20' W 006°07'816.8
2019-Oct-11 03:30N 53°23' W 005°53'7018.3
2019-Oct-10 23:40N 53°33' W 003°56'318.5
2019-Oct-10 23:30N 53°33' W 003°51'918.3
2019-Oct-10 23:00N 53°33' W 003°36'918.4
2019-Oct-10 22:30N 53°32' W 003°21'917.4
2019-Oct-10 22:00N 53°31' W 003°06'5 9.7
2019-Oct-10 21:30N 53°27' W 003°01'0 0.9
2019-Oct-10 21:00N 53°27' W 003°01'0 0.0
2019-Oct-10 20:30N 53°27' W 003°01'0 0.0
2019-Oct-10 20:00N 53°27' W 003°01'0 0.0
2019-Oct-10 19:30N 53°27' W 003°01'0 0.0
2019-Oct-10 19:00N 53°27' W 003°01'0 0.0
2019-Oct-10 18:30N 53°27' W 003°01'0 0.0
2019-Oct-10 18:00N 53°27' W 003°01'0 0.0
2019-Oct-10 17:30N 53°27' W 003°01'0 0.0
2019-Oct-10 17:00N 53°27' W 003°01'0 0.9
2019-Oct-10 16:30N 53°27' W 003°01'0 0.1
2019-Oct-10 16:00N 53°27' W 003°01'611.4
2019-Oct-10 15:31N 53°31' W 003°07'917.3
2019-Oct-10 15:01N 53°31' W 003°22'918.8
2019-Oct-10 14:31N 53°31' W 003°37'918.4
2019-Oct-10 14:01N 53°33' W 003°53'7717.8
2019-Oct-10 09:41N 53°21' W 006°01'317.2
2019-Oct-10 09:31N 53°20' W 006°06'4 8.7
2019-Oct-10 09:01N 53°21' W 006°13'0 0.0
2019-Oct-10 08:30N 53°21' W 006°13'0 0.0
2019-Oct-10 08:00N 53°21' W 006°13'0 0.0
2019-Oct-10 07:30N 53°21' W 006°13'0 0.0
2019-Oct-10 07:00N 53°21' W 006°13'0 0.0
2019-Oct-10 06:30N 53°21' W 006°13'0 0.0
2019-Oct-10 06:00N 53°21' W 006°13'0 0.0
2019-Oct-10 05:31N 53°21' W 006°13'0 0.0
2019-Oct-10 05:01N 53°21' W 006°13'3 6.6
2019-Oct-10 04:31N 53°21' W 006°08'1217.0
2019-Oct-10 03:48N 53°24' W 005°48'6118.4
2019-Oct-10 00:31N 53°35' W 004°08'219.0
2019-Oct-10 00:24N 53°34' W 004°04'719.0
2019-Oct-10 00:00N 53°34' W 003°52'918.8
2019-Oct-09 23:31N 53°34' W 003°36'918.4
2019-Oct-09 23:01N 53°32' W 003°21'917.5
2019-Oct-09 22:31N 53°31' W 003°06'5 9.8
2019-Oct-09 22:00N 53°27' W 003°01'0 0.9
2019-Oct-09 21:30N 53°27' W 003°01'0 0.0
2019-Oct-09 20:58N 53°27' W 003°01'0 0.0
2019-Oct-09 20:28N 53°27' W 003°01'0 0.0
2019-Oct-09 19:58N 53°27' W 003°01'0 0.0
2019-Oct-09 19:28N 53°27' W 003°01'0 0.0
2019-Oct-09 18:58N 53°27' W 003°01'0 0.0
2019-Oct-09 18:28N 53°27' W 003°01'0 0.0
2019-Oct-09 17:58N 53°27' W 003°01'0 0.0
2019-Oct-09 17:28N 53°27' W 003°01'0 0.0
2019-Oct-09 16:58N 53°27' W 003°01'0 0.0
2019-Oct-09 16:28N 53°27' W 003°01'0 0.0
2019-Oct-09 15:58N 53°27' W 003°01'0 1.0
2019-Oct-09 15:30N 53°27' W 003°01'1 2.0
2019-Oct-09 15:01N 53°28' W 003°02'714.5
2019-Oct-09 14:31N 53°31' W 003°13'918.4
2019-Oct-09 14:01N 53°31' W 003°28'918.6
2019-Oct-09 13:31N 53°31' W 003°44'918.5
2019-Oct-09 13:00N 53°33' W 003°59'7318.2
2019-Oct-09 09:00N 53°21' W 005°60'714.0
2019-Oct-09 08:30N 53°21' W 006°11'1 2.0
2019-Oct-09 08:00N 53°21' W 006°13'0 0.0
2019-Oct-09 07:30N 53°21' W 006°13'0 0.0
2019-Oct-09 07:00N 53°21' W 006°13'0 0.0
2019-Oct-09 06:30N 53°21' W 006°13'0 0.0
2019-Oct-09 06:00N 53°21' W 006°13'0 0.0
2019-Oct-09 05:30N 53°21' W 006°13'0 0.0
2019-Oct-09 05:00N 53°21' W 006°13'0 0.0
2019-Oct-09 04:30N 53°21' W 006°13'0 0.1
2019-Oct-09 04:00N 53°21' W 006°13'4 7.7
2019-Oct-09 03:30N 53°20' W 006°07'816.1
2019-Oct-09 03:00N 53°23' W 005°54'6116.8
2019-Oct-08 23:22N 53°34' W 004°13'1019.0
2019-Oct-08 22:50N 53°34' W 003°56'618.8
2019-Oct-08 22:30N 53°34' W 003°45'918.4
2019-Oct-08 22:00N 53°33' W 003°30'918.2
2019-Oct-08 21:30N 53°31' W 003°15'816.0
2019-Oct-08 21:01N 53°28' W 003°03'1 2.8
2019-Oct-08 20:30N 53°27' W 003°01'0 0.9
2019-Oct-08 20:00N 53°27' W 003°01'0 0.0
2019-Oct-08 19:30N 53°27' W 003°01'0 0.0
2019-Oct-08 19:00N 53°27' W 003°01'0 0.0
2019-Oct-08 18:30N 53°27' W 003°01'0 0.0
2019-Oct-08 18:00N 53°27' W 003°01'0 0.0
2019-Oct-08 17:30N 53°27' W 003°01'0 0.0
2019-Oct-08 17:00N 53°27' W 003°01'0 0.0
2019-Oct-08 16:30N 53°27' W 003°01'0 0.0
2019-Oct-08 16:00N 53°27' W 003°01'0 0.9
2019-Oct-08 15:28N 53°27' W 003°01'0 0.3
2019-Oct-08 15:01N 53°27' W 003°01'713.7
2019-Oct-08 14:31N 53°32' W 003°09'918.3
2019-Oct-08 14:01N 53°31' W 003°24'918.9
2019-Oct-08 13:31N 53°31' W 003°40'918.7
2019-Oct-08 13:01N 53°33' W 003°56'7518.0
2019-Oct-08 08:50N 53°21' W 006°01'413.3
2019-Oct-08 08:30N 53°21' W 006°08'3 6.4
2019-Oct-08 08:00N 53°21' W 006°13'0 0.0
2019-Oct-08 07:30N 53°21' W 006°13'0 0.0
2019-Oct-08 07:00N 53°21' W 006°13'0 0.0
2019-Oct-08 06:30N 53°21' W 006°13'0 0.0
2019-Oct-08 06:01N 53°21' W 006°13'0 0.0
2019-Oct-08 05:30N 53°21' W 006°13'0 0.0
2019-Oct-08 05:00N 53°21' W 006°13'0 0.0
2019-Oct-08 04:30N 53°21' W 006°13'0 0.1
2019-Oct-08 04:00N 53°21' W 006°13'4 8.4
2019-Oct-08 03:30N 53°20' W 006°06'816.4
2019-Oct-08 03:00N 53°23' W 005°53'6615.9
2019-Oct-07 22:51N 53°34' W 004°03'618.9
2019-Oct-07 22:31N 53°34' W 003°53'918.8
2019-Oct-07 22:01N 53°33' W 003°37'918.8
2019-Oct-07 21:31N 53°33' W 003°21'917.6
2019-Oct-07 21:01N 53°31' W 003°07'510.2
2019-Oct-07 20:31N 53°27' W 003°01'0 0.9
2019-Oct-07 20:00N 53°27' W 003°01'0 0.0
2019-Oct-07 19:31N 53°27' W 003°01'0 0.0
2019-Oct-07 19:00N 53°27' W 003°01'0 0.0
2019-Oct-07 18:30N 53°27' W 003°01'0 0.0
2019-Oct-07 18:00N 53°27' W 003°01'0 0.0
2019-Oct-07 17:30N 53°27' W 003°01'0 0.0
2019-Oct-07 17:00N 53°27' W 003°01'0 0.0
2019-Oct-07 16:30N 53°27' W 003°01'  

Dump ship's entire track history